createdAt,value
2023-05-26T00:00:57.970Z,17.20
2023-05-26T00:04:00.045Z,17.10
2023-05-26T00:07:02.336Z,17.10
2023-05-26T00:10:04.515Z,17.00
2023-05-26T00:13:06.633Z,16.90
2023-05-26T00:16:09.620Z,17.10
2023-05-26T00:19:12.203Z,16.90
2023-05-26T00:22:14.228Z,16.90
2023-05-26T00:25:16.269Z,16.80
2023-05-26T00:28:18.316Z,16.90
2023-05-26T00:31:20.521Z,16.90
2023-05-26T00:34:22.623Z,16.70
2023-05-26T00:37:24.639Z,16.70
2023-05-26T00:40:26.867Z,16.60
2023-05-26T00:43:28.816Z,16.70
2023-05-26T00:46:31.809Z,16.70
2023-05-26T00:49:35.155Z,16.60
2023-05-26T00:52:37.271Z,16.70
2023-05-26T00:55:39.567Z,16.50
2023-05-26T00:58:41.822Z,16.40
2023-05-26T01:01:44.471Z,16.40
2023-05-26T01:04:47.218Z,16.40
2023-05-26T01:07:49.268Z,16.30
2023-05-26T01:10:53.554Z,16.40
2023-05-26T01:14:08.711Z,16.40
2023-05-26T01:17:18.691Z,16.30
2023-05-26T01:20:54.200Z,16.10
2023-05-26T01:24:12.463Z,16.20
2023-05-26T01:27:32.906Z,16.00
2023-05-26T01:30:35.654Z,16.10
2023-05-26T01:33:37.845Z,15.90
2023-05-26T01:36:42.097Z,15.90
2023-05-26T01:39:44.154Z,15.90
2023-05-26T01:42:57.137Z,15.90
2023-05-26T01:46:20.412Z,15.90
2023-05-26T01:49:27.487Z,15.90
2023-05-26T01:52:35.390Z,15.80
2023-05-26T01:55:39.615Z,15.90
2023-05-26T01:58:42.174Z,15.90
2023-05-26T02:01:44.764Z,16.00
2023-05-26T02:04:51.575Z,15.90
2023-05-26T02:07:54.132Z,15.80
2023-05-26T02:10:57.220Z,15.80
2023-05-26T02:14:00.255Z,15.90
2023-05-26T02:17:07.486Z,15.80
2023-05-26T02:20:10.269Z,16.00
2023-05-26T02:23:12.744Z,15.80
2023-05-26T02:26:15.296Z,15.80
2023-05-26T02:29:18.428Z,15.90
2023-05-26T02:32:21.797Z,15.90
2023-05-26T02:35:24.170Z,15.70
2023-05-26T02:38:26.566Z,15.70
2023-05-26T02:41:28.935Z,15.80
2023-05-26T02:44:31.112Z,15.90
2023-05-26T02:47:33.422Z,15.80
2023-05-26T02:50:35.912Z,15.70
2023-05-26T02:53:40.162Z,15.50
2023-05-26T02:56:45.226Z,15.60
2023-05-26T02:59:47.904Z,15.70
2023-05-26T03:02:51.196Z,15.70
2023-05-26T03:05:53.932Z,15.50
2023-05-26T03:08:56.211Z,15.40
2023-05-26T03:11:58.564Z,15.40
2023-05-26T03:15:01.190Z,15.40
2023-05-26T03:18:05.519Z,15.40
2023-05-26T03:21:47.406Z,15.30
2023-05-26T03:24:31.205Z,15.20
2023-05-26T03:27:34.593Z,15.20
2023-05-26T03:30:37.638Z,15.10
2023-05-26T03:33:40.066Z,14.90
2023-05-26T03:36:43.355Z,14.80
2023-05-26T03:39:54.178Z,15.00
2023-05-26T03:43:01.454Z,14.80
2023-05-26T03:46:06.315Z,14.70
2023-05-26T03:49:08.406Z,14.90
2023-05-26T03:52:10.636Z,14.70
2023-05-26T03:55:15.265Z,14.60
2023-05-26T03:58:19.791Z,14.70
2023-05-26T04:01:23.335Z,14.60
2023-05-26T04:04:26.651Z,14.60
2023-05-26T04:07:28.804Z,14.60
2023-05-26T04:10:30.870Z,14.70
2023-05-26T04:13:37.573Z,14.60
2023-05-26T04:16:39.699Z,14.50
2023-05-26T04:19:41.771Z,14.50
2023-05-26T04:22:43.833Z,14.70
2023-05-26T04:25:46.045Z,14.70
2023-05-26T04:28:56.574Z,14.60
2023-05-26T04:32:24.119Z,14.70
2023-05-26T04:35:36.132Z,14.80
2023-05-26T04:38:40.912Z,14.80
2023-05-26T04:41:43.088Z,14.90
2023-05-26T04:44:46.110Z,14.90
2023-05-26T04:47:48.421Z,14.80
2023-05-26T04:50:52.817Z,14.90
2023-05-26T04:53:54.865Z,14.80
2023-05-26T04:56:57.410Z,15.00
2023-05-26T05:00:10.330Z,14.90
2023-05-26T05:03:13.109Z,15.00
2023-05-26T05:06:23.688Z,14.90
2023-05-26T05:09:25.843Z,14.90
2023-05-26T05:12:30.219Z,15.20
2023-05-26T05:15:32.734Z,15.20
2023-05-26T05:18:37.101Z,15.40
2023-05-26T05:21:39.334Z,15.50
2023-05-26T05:24:41.572Z,15.60
2023-05-26T05:27:43.694Z,15.60
2023-05-26T05:30:46.675Z,15.80
2023-05-26T05:33:49.654Z,15.90
2023-05-26T05:36:51.536Z,16.00
2023-05-26T05:39:53.587Z,16.10
2023-05-26T05:42:55.716Z,16.00
2023-05-26T05:45:57.858Z,16.30
2023-05-26T05:49:28.750Z,16.50
2023-05-26T05:52:30.847Z,16.90
2023-05-26T05:55:32.905Z,17.40
2023-05-26T05:58:35.017Z,17.50
2023-05-26T06:01:37.912Z,18.00
2023-05-26T06:04:40.054Z,18.20
2023-05-26T06:07:43.481Z,18.60
2023-05-26T06:10:48.318Z,18.70
2023-05-26T06:13:50.556Z,18.80
2023-05-26T06:16:53.783Z,19.00
2023-05-26T06:19:55.787Z,19.30
2023-05-26T06:23:02.017Z,19.40
2023-05-26T06:26:04.494Z,19.80
2023-05-26T06:29:06.833Z,19.80
2023-05-26T06:32:09.017Z,20.20
2023-05-26T06:35:10.984Z,20.40
2023-05-26T06:38:13.130Z,21.10
2023-05-26T06:41:15.092Z,20.70
2023-05-26T06:44:17.669Z,21.20
2023-05-26T06:47:21.130Z,21.60
2023-05-26T06:50:23.741Z,21.80
2023-05-26T06:53:25.815Z,22.00
2023-05-26T06:56:27.806Z,22.10
2023-05-26T06:59:29.763Z,22.10
2023-05-26T07:02:31.823Z,22.00
2023-05-26T07:05:57.535Z,22.40
2023-05-26T07:09:01.246Z,22.50
2023-05-26T07:12:08.184Z,22.80
2023-05-26T07:15:17.876Z,22.70
2023-05-26T07:18:22.147Z,22.70
2023-05-26T07:21:24.318Z,23.20
2023-05-26T07:24:26.553Z,23.20
2023-05-26T07:27:28.774Z,23.40
2023-05-26T07:30:30.974Z,23.00
2023-05-26T07:33:51.101Z,23.40
2023-05-26T07:36:55.356Z,23.70
2023-05-26T07:39:57.468Z,23.40
2023-05-26T07:43:03.513Z,23.70
2023-05-26T07:46:05.846Z,24.20
2023-05-26T07:49:10.112Z,24.80
2023-05-26T07:52:12.234Z,25.00
2023-05-26T07:55:14.278Z,25.10
2023-05-26T07:58:16.345Z,25.30
2023-05-26T08:01:18.410Z,25.80
2023-05-26T08:04:20.596Z,25.80
2023-05-26T08:07:23.086Z,25.30
2023-05-26T08:10:25.643Z,25.40
2023-05-26T08:13:27.749Z,25.40
2023-05-26T08:16:29.835Z,25.70
2023-05-26T08:19:31.877Z,26.10
2023-05-26T08:22:33.926Z,26.20
2023-05-26T08:25:35.915Z,26.80
2023-05-26T08:28:38.074Z,26.20
2023-05-26T08:31:40.151Z,25.90
2023-05-26T08:34:42.287Z,26.10
2023-05-26T08:37:44.344Z,26.50
2023-05-26T08:40:47.195Z,26.40
2023-05-26T08:44:01.849Z,26.90
2023-05-26T08:47:09.521Z,26.90
2023-05-26T08:50:12.640Z,27.30
2023-05-26T08:53:16.921Z,27.10
2023-05-26T08:56:20.949Z,27.20
2023-05-26T08:59:23.557Z,27.20
2023-05-26T09:02:26.226Z,27.00
2023-05-26T09:05:31.057Z,26.70
2023-05-26T09:08:34.147Z,27.40
2023-05-26T09:11:47.269Z,27.80
2023-05-26T09:14:58.982Z,27.70
2023-05-26T09:18:06.155Z,27.60
2023-05-26T09:21:08.512Z,27.70
2023-05-26T09:24:10.592Z,27.60
2023-05-26T09:27:20.240Z,27.60
2023-05-26T09:30:22.338Z,27.50
2023-05-26T09:33:24.469Z,27.00
2023-05-26T09:36:26.839Z,27.30
2023-05-26T09:39:33.113Z,27.60
2023-05-26T09:42:38.205Z,28.20
2023-05-26T09:45:41.380Z,27.90
2023-05-26T09:48:52.786Z,28.00
2023-05-26T09:52:10.549Z,28.00
2023-05-26T09:55:15.547Z,27.70
2023-05-26T09:58:22.507Z,28.40
2023-05-26T10:01:25.008Z,27.90
2023-05-26T10:04:27.168Z,27.70
2023-05-26T10:07:29.477Z,28.50
2023-05-26T10:10:32.155Z,27.70
2023-05-26T10:13:34.954Z,27.80
2023-05-26T10:16:38.887Z,27.80
2023-05-26T10:19:41.537Z,28.00
2023-05-26T10:23:01.208Z,27.40
2023-05-26T10:26:12.018Z,27.20
2023-05-26T10:29:18.650Z,27.20
2023-05-26T10:32:52.491Z,27.40
2023-05-26T10:35:58.982Z,26.90
2023-05-26T10:39:01.116Z,26.40
2023-05-26T10:42:19.462Z,26.40
2023-05-26T10:45:21.725Z,26.80
2023-05-26T10:48:26.834Z,26.60
2023-05-26T10:51:32.986Z,26.70
2023-05-26T11:07:28.431Z,27.00
2023-05-26T11:10:59.747Z,27.00
2023-05-26T11:14:09.330Z,27.00
2023-05-26T11:17:13.581Z,26.80
2023-05-26T11:20:17.381Z,26.70
2023-05-26T11:23:20.723Z,26.60
2023-05-26T11:26:23.292Z,26.80
2023-05-26T11:29:25.351Z,26.50
2023-05-26T11:32:27.401Z,26.80
2023-05-26T11:35:30.037Z,27.10
2023-05-26T11:38:34.044Z,26.90
2023-05-26T11:41:36.190Z,26.90
2023-05-26T11:44:39.218Z,27.10
2023-05-26T11:47:41.266Z,27.10
2023-05-26T11:50:43.585Z,27.20
2023-05-26T11:53:45.690Z,27.10
2023-05-26T11:56:48.971Z,27.20
2023-05-26T11:59:53.415Z,27.10
2023-05-26T12:02:55.560Z,27.10
2023-05-26T12:06:31.362Z,27.00
2023-05-26T12:09:33.517Z,27.10
2023-05-26T12:12:51.941Z,27.30
2023-05-26T12:15:56.543Z,27.20
2023-05-26T12:19:03.030Z,27.10
2023-05-26T12:22:07.752Z,26.70
2023-05-26T12:25:10.042Z,27.00
2023-05-26T12:28:12.043Z,26.90
2023-05-26T12:31:14.116Z,27.00
2023-05-26T12:34:23.759Z,27.00
2023-05-26T12:37:25.800Z,27.10
2023-05-26T12:40:28.142Z,27.00
2023-05-26T12:43:30.153Z,27.20
2023-05-26T12:46:32.433Z,27.00
2023-05-26T12:49:34.464Z,27.10
2023-05-26T12:52:36.461Z,27.20
2023-05-26T12:55:38.709Z,27.20
2023-05-26T12:58:41.475Z,27.30
2023-05-26T13:01:43.615Z,27.30
2023-05-26T13:04:45.691Z,27.30
2023-05-26T13:07:47.633Z,27.30
2023-05-26T13:10:50.226Z,27.40
2023-05-26T13:13:52.200Z,27.20
2023-05-26T13:16:54.329Z,27.30
2023-05-26T13:19:56.483Z,27.20
2023-05-26T13:22:58.681Z,27.30
2023-05-26T13:26:00.723Z,27.40
2023-05-26T13:29:02.846Z,27.40
2023-05-26T13:32:05.131Z,27.50
2023-05-26T13:35:07.877Z,27.40
2023-05-26T13:38:09.935Z,27.50
2023-05-26T13:41:13.277Z,27.40
2023-05-26T13:44:15.317Z,27.30
2023-05-26T13:47:17.413Z,27.30
2023-05-26T13:50:21.628Z,27.20
2023-05-26T13:53:24.457Z,27.00
2023-05-26T13:58:47.235Z,27.10
2023-05-26T13:59:48.659Z,27.20
2023-05-26T14:02:50.917Z,27.20
2023-05-26T14:05:53.052Z,27.10
2023-05-26T14:08:56.531Z,27.10
2023-05-26T14:11:58.707Z,27.10
2023-05-26T14:15:00.775Z,27.20
2023-05-26T14:18:08.153Z,27.00
2023-05-26T14:22:05.469Z,27.00
2023-05-26T14:24:35.691Z,27.00
2023-05-26T14:27:39.848Z,26.80
2023-05-26T14:30:42.022Z,27.00
2023-05-26T14:33:44.078Z,26.90
2023-05-26T14:36:48.991Z,26.90
2023-05-26T14:39:51.140Z,27.00
2023-05-26T14:43:04.905Z,27.00
2023-05-26T14:46:10.489Z,27.00
2023-05-26T14:49:13.842Z,26.90
2023-05-26T14:52:18.998Z,26.70
2023-05-26T14:55:26.848Z,26.60
2023-05-26T14:58:39.646Z,26.70
2023-05-26T15:01:44.369Z,26.70
2023-05-26T15:04:59.299Z,26.70
2023-05-26T15:08:09.304Z,26.60
2023-05-26T15:11:13.739Z,26.70
2023-05-26T15:14:18.982Z,26.70
2023-05-26T15:17:23.903Z,26.80
2023-05-26T15:20:50.288Z,26.80
2023-05-26T15:27:32.665Z,26.70
2023-05-26T15:30:34.661Z,26.60
2023-05-26T15:33:36.925Z,26.70
2023-05-26T15:36:41.666Z,26.60
2023-05-26T15:39:44.270Z,26.50
2023-05-26T15:42:46.297Z,26.50
2023-05-26T15:45:48.587Z,26.50
2023-05-26T15:48:50.854Z,26.40
2023-05-26T15:51:54.381Z,26.30
2023-05-26T15:54:58.926Z,26.40
2023-05-26T15:58:02.803Z,26.40
2023-05-26T16:01:05.905Z,26.40
2023-05-26T16:04:11.444Z,26.30
2023-05-26T16:07:13.481Z,26.30
2023-05-26T16:10:15.606Z,26.10
2023-05-26T16:13:20.039Z,26.20
2023-05-26T16:16:22.682Z,26.10
2023-05-26T16:19:27.270Z,26.00
2023-05-26T16:22:29.295Z,26.10
2023-05-26T16:25:31.364Z,25.90
2023-05-26T16:28:33.423Z,25.90
2023-05-26T16:31:36.044Z,26.00
2023-05-26T16:34:38.600Z,25.90
2023-05-26T16:37:40.746Z,25.80
2023-05-26T16:40:43.128Z,25.90
2023-05-26T16:43:49.112Z,25.90
2023-05-26T16:46:51.325Z,25.80
2023-05-26T16:49:53.635Z,25.70
2023-05-26T16:52:55.960Z,25.60
2023-05-26T16:55:58.308Z,25.50
2023-05-26T16:59:00.670Z,25.50
2023-05-26T17:02:02.946Z,25.50
2023-05-26T17:05:08.025Z,25.40
2023-05-26T17:08:10.428Z,25.40
2023-05-26T17:11:15.494Z,25.40
2023-05-26T17:14:17.778Z,25.30
2023-05-26T17:17:20.906Z,25.30
2023-05-26T17:20:23.131Z,25.20
2023-05-26T17:23:26.352Z,25.10
2023-05-26T17:26:28.756Z,25.00
2023-05-26T17:29:31.077Z,25.00
2023-05-26T17:32:33.226Z,25.00
2023-05-26T17:35:35.377Z,24.90
2023-05-26T17:38:39.653Z,24.80
2023-05-26T17:41:42.026Z,24.70
2023-05-26T17:44:46.570Z,24.60
2023-05-26T17:47:51.520Z,24.60
2023-05-26T17:50:56.687Z,24.40
2023-05-26T17:53:58.870Z,24.40
2023-05-26T17:57:01.284Z,24.20
2023-05-26T18:00:04.175Z,24.20
2023-05-26T18:03:14.812Z,24.10
2023-05-26T18:06:17.222Z,24.00
2023-05-26T18:09:19.284Z,23.90
2023-05-26T18:12:23.248Z,23.80
2023-05-26T18:15:25.450Z,23.70
2023-05-26T18:18:30.390Z,23.60
2023-05-26T18:21:32.808Z,23.50
2023-05-26T18:24:34.851Z,23.60
2023-05-26T18:27:37.480Z,23.50
2023-05-26T18:30:39.654Z,23.50
2023-05-26T18:33:41.742Z,23.30
2023-05-26T18:36:44.108Z,23.30
2023-05-26T18:39:52.053Z,23.20
2023-05-26T18:42:54.083Z,23.10
2023-05-26T18:45:56.081Z,23.00
2023-05-26T18:48:58.413Z,22.90
2023-05-26T18:52:00.506Z,22.70
2023-05-26T18:55:02.667Z,22.70
2023-05-26T18:58:04.794Z,22.70
2023-05-26T19:01:06.911Z,22.60
2023-05-26T19:04:09.147Z,22.60
2023-05-26T19:07:11.743Z,22.50
2023-05-26T19:10:15.780Z,22.30
2023-05-26T19:13:17.952Z,22.30
2023-05-26T19:16:20.489Z,22.10
2023-05-26T19:19:23.217Z,22.10
2023-05-26T19:22:29.146Z,22.00
2023-05-26T19:25:33.791Z,22.00
2023-05-26T19:28:39.473Z,22.00
2023-05-26T19:31:46.858Z,21.90
2023-05-26T19:34:49.035Z,21.80
2023-05-26T19:37:52.025Z,21.80
2023-05-26T19:47:30.789Z,21.50
2023-05-26T19:50:33.175Z,21.60
2023-05-26T19:53:35.443Z,21.40
2023-05-26T19:56:37.520Z,21.40
2023-05-26T19:59:39.901Z,21.40
2023-05-26T20:02:42.055Z,21.20
2023-05-26T20:05:45.973Z,21.10
2023-05-26T20:08:48.108Z,21.00
2023-05-26T20:11:50.386Z,20.90
2023-05-26T20:14:52.384Z,21.00
2023-05-26T20:17:54.531Z,20.90
2023-05-26T20:20:56.900Z,20.70
2023-05-26T20:23:59.401Z,20.60
2023-05-26T20:27:01.762Z,20.60
2023-05-26T20:30:04.267Z,20.70
2023-05-26T20:33:07.645Z,20.50
2023-05-26T20:36:12.972Z,20.40
2023-05-26T20:39:15.390Z,20.40
2023-05-26T20:42:17.589Z,20.30
2023-05-26T20:45:20.134Z,20.30
2023-05-26T20:48:22.272Z,20.20
2023-05-26T20:51:29.088Z,20.30
2023-05-26T20:54:34.125Z,20.20
2023-05-26T20:57:36.604Z,20.10
2023-05-26T21:00:38.974Z,20.00
2023-05-26T21:03:41.527Z,20.00
2023-05-26T21:06:43.775Z,20.00
2023-05-26T21:09:45.899Z,20.00
2023-05-26T21:12:48.687Z,19.90
2023-05-26T21:15:53.370Z,19.80
2023-05-26T21:18:56.031Z,19.80
2023-05-26T21:21:58.142Z,19.70
2023-05-26T21:25:02.953Z,19.70
2023-05-26T21:28:07.728Z,19.70
2023-05-26T21:31:10.546Z,19.50
2023-05-26T21:34:12.816Z,19.60
2023-05-26T21:37:15.048Z,19.50
2023-05-26T21:40:17.306Z,19.40
2023-05-26T21:43:19.504Z,19.40
2023-05-26T21:46:21.527Z,19.20
2023-05-26T21:49:24.045Z,19.20
2023-05-26T21:52:26.271Z,19.10
2023-05-26T21:55:29.005Z,19.10
2023-05-26T21:58:31.213Z,18.90
2023-05-26T22:01:33.560Z,18.90
2023-05-26T22:04:35.680Z,18.80
2023-05-26T22:07:45.510Z,18.80
2023-05-26T22:10:49.654Z,18.70
2023-05-26T22:13:52.199Z,18.70
2023-05-26T22:16:54.870Z,18.70
2023-05-26T22:19:57.318Z,18.50
2023-05-26T22:22:59.387Z,18.50
2023-05-26T22:26:01.544Z,18.40
2023-05-26T22:29:03.820Z,18.40
2023-05-26T22:32:06.679Z,18.50
2023-05-26T22:35:09.238Z,18.40
2023-05-26T22:38:12.034Z,18.40
2023-05-26T22:41:20.422Z,18.40
2023-05-26T22:44:22.897Z,18.10
2023-05-26T22:47:25.243Z,18.10
2023-05-26T22:50:27.328Z,18.00
2023-05-26T22:53:32.546Z,17.90
2023-05-26T22:56:34.871Z,17.90
2023-05-26T22:59:39.689Z,17.90
2023-05-26T23:02:43.015Z,17.90
2023-05-26T23:05:45.285Z,17.80
2023-05-26T23:08:48.306Z,17.70
2023-05-26T23:11:50.759Z,17.90
2023-05-26T23:14:53.141Z,17.70
2023-05-26T23:17:58.937Z,17.60
2023-05-26T23:21:01.340Z,17.60
2023-05-26T23:24:03.449Z,17.50
2023-05-26T23:27:05.721Z,17.50
2023-05-26T23:30:08.460Z,17.40
2023-05-26T23:33:12.916Z,17.40
2023-05-26T23:36:15.073Z,17.40
2023-05-26T23:39:17.099Z,17.40
2023-05-26T23:42:19.394Z,17.40
2023-05-26T23:45:21.964Z,17.30
2023-05-26T23:48:24.217Z,17.20
2023-05-26T23:51:26.294Z,17.20
2023-05-26T23:54:30.223Z,17.10
2023-05-26T23:57:32.393Z,17.20
